sensor_id;sensor_type;location;lat;lon;timestamp;P1;durP1;ratioP1;P2;durP2;ratioP2
57191;SDS011;43052;52.588;13.396;2024-03-07T16:44:40;21.85;;;16.23;;
57191;SDS011;43052;52.588;13.396;2024-03-07T16:47:06;21.25;;;16.02;;
57191;SDS011;43052;52.588;13.396;2024-03-07T16:49:37;25.23;;;17.13;;
57191;SDS011;43052;52.588;13.396;2024-03-07T16:52:04;21.30;;;15.48;;
57191;SDS011;43052;52.588;13.396;2024-03-07T16:54:32;23.50;;;16.83;;
57191;SDS011;43052;52.588;13.396;2024-03-07T16:57:00;20.73;;;16.95;;
57191;SDS011;43052;52.588;13.396;2024-03-07T16:59:26;23.58;;;16.08;;
57191;SDS011;43052;52.588;13.396;2024-03-07T17:01:51;22.95;;;15.27;;
57191;SDS011;43052;52.588;13.396;2024-03-07T17:04:17;24.05;;;16.58;;
57191;SDS011;43052;52.588;13.396;2024-03-07T17:06:43;22.02;;;16.77;;
57191;SDS011;43052;52.588;13.396;2024-03-07T17:09:08;23.10;;;17.10;;
57191;SDS011;43052;52.588;13.396;2024-03-07T17:11:37;22.35;;;17.58;;
57191;SDS011;43052;52.588;13.396;2024-03-07T17:14:02;21.77;;;16.70;;
57191;SDS011;43052;52.588;13.396;2024-03-07T17:16:30;21.88;;;16.88;;
57191;SDS011;43052;52.588;13.396;2024-03-07T17:18:56;24.08;;;17.65;;
57191;SDS011;43052;52.588;13.396;2024-03-07T17:21:22;21.98;;;17.25;;
57191;SDS011;43052;52.588;13.396;2024-03-07T17:23:49;21.38;;;17.02;;
57191;SDS011;43052;52.588;13.396;2024-03-07T17:26:14;23.50;;;17.90;;
57191;SDS011;43052;52.588;13.396;2024-03-07T17:28:40;22.73;;;17.42;;
57191;SDS011;43052;52.588;13.396;2024-03-07T17:31:06;23.20;;;17.92;;
57191;SDS011;43052;52.588;13.396;2024-03-07T17:33:33;22.17;;;17.23;;
57191;SDS011;43052;52.588;13.396;2024-03-07T17:35:58;27.30;;;20.08;;
57191;SDS011;43052;52.588;13.396;2024-03-07T17:38:24;25.52;;;18.42;;
57191;SDS011;43052;52.588;13.396;2024-03-07T17:40:49;24.05;;;18.65;;
57191;SDS011;43052;52.588;13.396;2024-03-07T17:43:15;25.95;;;18.85;;
57191;SDS011;43052;52.588;13.396;2024-03-07T17:45:42;28.80;;;23.63;;
57191;SDS011;43052;52.588;13.396;2024-03-07T17:48:07;23.80;;;19.38;;
57191;SDS011;43052;52.588;13.396;2024-03-07T17:50:35;24.92;;;20.17;;
57191;SDS011;43052;52.588;13.396;2024-03-07T17:53:02;25.38;;;20.60;;
57191;SDS011;43052;52.588;13.396;2024-03-07T17:55:32;23.88;;;20.05;;
57191;SDS011;43052;52.588;13.396;2024-03-07T17:57:58;24.13;;;21.52;;
57191;SDS011;43052;52.588;13.396;2024-03-07T18:00:28;24.42;;;19.00;;
57191;SDS011;43052;52.588;13.396;2024-03-07T18:02:55;28.00;;;25.05;;
57191;SDS011;43052;52.588;13.396;2024-03-07T18:05:26;26.42;;;20.70;;
57191;SDS011;43052;52.588;13.396;2024-03-07T18:07:54;23.70;;;19.17;;
57191;SDS011;43052;52.588;13.396;2024-03-07T18:10:20;27.25;;;22.38;;
57191;SDS011;43052;52.588;13.396;2024-03-07T18:12:46;24.15;;;18.85;;
57191;SDS011;43052;52.588;13.396;2024-03-07T18:15:18;29.10;;;25.60;;
57191;SDS011;43052;52.588;13.396;2024-03-07T18:17:45;29.13;;;22.30;;
57191;SDS011;43052;52.588;13.396;2024-03-07T18:20:16;29.88;;;21.33;;
57191;SDS011;43052;52.588;13.396;2024-03-07T18:22:41;26.60;;;21.83;;
57191;SDS011;43052;52.588;13.396;2024-03-07T18:25:07;29.98;;;23.20;;
57191;SDS011;43052;52.588;13.396;2024-03-07T18:27:33;32.78;;;25.98;;
57191;SDS011;43052;52.588;13.396;2024-03-07T18:30:01;36.90;;;28.42;;
57191;SDS011;43052;52.588;13.396;2024-03-07T18:35:05;33.55;;;27.83;;
57191;SDS011;43052;52.588;13.396;2024-03-07T18:37:31;33.08;;;24.92;;
57191;SDS011;43052;52.588;13.396;2024-03-07T18:39:57;32.35;;;25.35;;
57191;SDS011;43052;52.588;13.396;2024-03-07T18:42:23;29.30;;;24.92;;
57191;SDS011;43052;52.588;13.396;2024-03-07T18:44:49;32.35;;;26.35;;
57191;SDS011;43052;52.588;13.396;2024-03-07T18:47:18;29.73;;;23.65;;
57191;SDS011;43052;52.588;13.396;2024-03-07T18:49:44;34.88;;;24.80;;
57191;SDS011;43052;52.588;13.396;2024-03-07T18:52:14;32.88;;;24.70;;
57191;SDS011;43052;52.588;13.396;2024-03-07T18:54:40;29.65;;;23.50;;
57191;SDS011;43052;52.588;13.396;2024-03-07T18:57:07;32.28;;;24.85;;
57191;SDS011;43052;52.588;13.396;2024-03-07T18:59:35;38.08;;;31.52;;
57191;SDS011;43052;52.588;13.396;2024-03-07T19:02:02;35.47;;;27.90;;
57191;SDS011;43052;52.588;13.396;2024-03-07T19:04:35;34.10;;;28.42;;
57191;SDS011;43052;52.588;13.396;2024-03-07T19:07:01;35.30;;;26.52;;
57191;SDS011;43052;52.588;13.396;2024-03-07T19:09:32;34.13;;;27.15;;
57191;SDS011;43052;52.588;13.396;2024-03-07T19:11:58;33.25;;;25.35;;
57191;SDS011;43052;52.588;13.396;2024-03-07T19:14:26;31.80;;;23.98;;
57191;SDS011;43052;52.588;13.396;2024-03-07T19:16:52;32.63;;;25.83;;
57191;SDS011;43052;52.588;13.396;2024-03-07T19:26:05;29.80;;;24.48;;
57191;SDS011;43052;52.588;13.396;2024-03-07T19:28:34;30.95;;;23.50;;
57191;SDS011;43052;52.588;13.396;2024-03-07T19:31:03;32.15;;;25.50;;
57191;SDS011;43052;52.588;13.396;2024-03-07T19:33:28;33.92;;;28.02;;
57191;SDS011;43052;52.588;13.396;2024-03-07T19:35:56;31.55;;;26.40;;
57191;SDS011;43052;52.588;13.396;2024-03-07T19:38:23;40.05;;;32.13;;
57191;SDS011;43052;52.588;13.396;2024-03-07T19:49:22;34.70;;;27.08;;
57191;SDS011;43052;52.588;13.396;2024-03-07T19:51:52;34.45;;;28.33;;
57191;SDS011;43052;52.588;13.396;2024-03-07T19:54:21;33.88;;;26.00;;
57191;SDS011;43052;52.588;13.396;2024-03-07T19:56:49;31.48;;;25.92;;
57191;SDS011;43052;52.588;13.396;2024-03-07T19:59:17;30.95;;;26.67;;
57191;SDS011;43052;52.588;13.396;2024-03-07T20:01:42;34.85;;;30.17;;
57191;SDS011;43052;52.588;13.396;2024-03-07T20:04:09;35.83;;;29.35;;
57191;SDS011;43052;52.588;13.396;2024-03-07T20:06:35;50.55;;;40.30;;
57191;SDS011;43052;52.588;13.396;2024-03-07T20:09:00;46.90;;;41.40;;
57191;SDS011;43052;52.588;13.396;2024-03-07T20:11:31;34.67;;;29.60;;
57191;SDS011;43052;52.588;13.396;2024-03-07T20:13:59;35.97;;;29.30;;
57191;SDS011;43052;52.588;13.396;2024-03-07T20:16:24;43.35;;;38.13;;
57191;SDS011;43052;52.588;13.396;2024-03-07T20:18:51;34.50;;;27.60;;
57191;SDS011;43052;52.588;13.396;2024-03-07T20:21:17;41.97;;;34.97;;
57191;SDS011;43052;52.588;13.396;2024-03-07T20:23:42;44.17;;;36.25;;
57191;SDS011;43052;52.588;13.396;2024-03-07T20:26:08;49.05;;;43.38;;
57191;SDS011;43052;52.588;13.396;2024-03-07T20:28:34;35.30;;;28.02;;
57191;SDS011;43052;52.588;13.396;2024-03-07T20:30:59;31.67;;;26.40;;
57191;SDS011;43052;52.588;13.396;2024-03-07T20:33:25;34.03;;;27.50;;
57191;SDS011;43052;52.588;13.396;2024-03-07T20:35:51;34.10;;;27.77;;
57191;SDS011;43052;52.588;13.396;2024-03-07T20:38:16;36.28;;;28.25;;
57191;SDS011;43052;52.588;13.396;2024-03-07T20:40:46;34.33;;;29.50;;
57191;SDS011;43052;52.588;13.396;2024-03-07T20:43:11;36.70;;;28.05;;
57191;SDS011;43052;52.588;13.396;2024-03-07T20:45:39;33.92;;;26.38;;
57191;SDS011;43052;52.588;13.396;2024-03-07T20:48:06;35.78;;;27.00;;
57191;SDS011;43052;52.588;13.396;2024-03-07T20:50:36;37.95;;;25.90;;
57191;SDS011;43052;52.588;13.396;2024-03-07T20:53:04;34.08;;;27.05;;
57191;SDS011;43052;52.588;13.396;2024-03-07T20:55:30;35.70;;;26.65;;
57191;SDS011;43052;52.588;13.396;2024-03-07T20:57:55;37.95;;;26.30;;
57191;SDS011;43052;52.588;13.396;2024-03-07T21:00:23;38.13;;;30.00;;
57191;SDS011;43052;52.588;13.396;2024-03-07T21:02:50;35.63;;;26.40;;
57191;SDS011;43052;52.588;13.396;2024-03-07T21:05:17;36.70;;;28.08;;
57191;SDS011;43052;52.588;13.396;2024-03-07T21:07:44;34.17;;;26.13;;
57191;SDS011;43052;52.588;13.396;2024-03-07T21:10:10;33.15;;;27.50;;
57191;SDS011;43052;52.588;13.396;2024-03-07T21:12:44;34.75;;;26.08;;
57191;SDS011;43052;52.588;13.396;2024-03-07T21:15:10;41.85;;;32.30;;
57191;SDS011;43052;52.588;13.396;2024-03-07T21:17:35;33.38;;;26.35;;
57191;SDS011;43052;52.588;13.396;2024-03-07T21:20:02;33.90;;;26.27;;
57191;SDS011;43052;52.588;13.396;2024-03-07T21:22:39;33.20;;;25.83;;
57191;SDS011;43052;52.588;13.396;2024-03-07T21:25:10;36.53;;;26.23;;
57191;SDS011;43052;52.588;13.396;2024-03-07T21:27:38;39.28;;;29.05;;
57191;SDS011;43052;52.588;13.396;2024-03-07T21:30:07;30.38;;;24.35;;
57191;SDS011;43052;52.588;13.396;2024-03-07T21:32:35;31.02;;;23.52;;
57191;SDS011;43052;52.588;13.396;2024-03-07T21:35:03;29.65;;;23.65;;
57191;SDS011;43052;52.588;13.396;2024-03-07T21:37:33;31.65;;;23.42;;
57191;SDS011;43052;52.588;13.396;2024-03-07T21:40:01;31.83;;;23.23;;
57191;SDS011;43052;52.588;13.396;2024-03-07T21:42:27;29.48;;;23.05;;
57191;SDS011;43052;52.588;13.396;2024-03-07T21:44:54;30.30;;;22.63;;
57191;SDS011;43052;52.588;13.396;2024-03-07T21:47:19;32.83;;;23.50;;
57191;SDS011;43052;52.588;13.396;2024-03-07T21:49:45;30.33;;;23.13;;
57191;SDS011;43052;52.588;13.396;2024-03-07T21:52:11;27.42;;;21.90;;
57191;SDS011;43052;52.588;13.396;2024-03-07T21:54:39;29.27;;;21.83;;
57191;SDS011;43052;52.588;13.396;2024-03-07T21:57:06;27.40;;;21.48;;
57191;SDS011;43052;52.588;13.396;2024-03-07T21:59:32;27.92;;;21.90;;
57191;SDS011;43052;52.588;13.396;2024-03-07T22:02:00;27.38;;;21.25;;
57191;SDS011;43052;52.588;13.396;2024-03-07T22:04:26;29.40;;;21.90;;
57191;SDS011;43052;52.588;13.396;2024-03-07T22:06:51;29.25;;;21.70;;
57191;SDS011;43052;52.588;13.396;2024-03-07T22:09:20;28.67;;;22.00;;
57191;SDS011;43052;52.588;13.396;2024-03-07T22:11:46;27.08;;;21.08;;
57191;SDS011;43052;52.588;13.396;2024-03-07T22:14:15;29.25;;;21.80;;
57191;SDS011;43052;52.588;13.396;2024-03-07T22:16:47;31.05;;;24.13;;
57191;SDS011;43052;52.588;13.396;2024-03-07T22:19:17;32.95;;;25.58;;
57191;SDS011;43052;52.588;13.396;2024-03-07T22:21:43;34.13;;;25.52;;
57191;SDS011;43052;52.588;13.396;2024-03-07T22:24:09;34.55;;;24.70;;
57191;SDS011;43052;52.588;13.396;2024-03-07T22:26:35;32.58;;;25.38;;
57191;SDS011;43052;52.588;13.396;2024-03-07T22:29:01;33.15;;;25.30;;
57191;SDS011;43052;52.588;13.396;2024-03-07T22:31:36;29.63;;;23.98;;
57191;SDS011;43052;52.588;13.396;2024-03-07T22:34:10;28.83;;;21.20;;
57191;SDS011;43052;52.588;13.396;2024-03-07T22:36:46;32.20;;;23.75;;
57191;SDS011;43052;52.588;13.396;2024-03-07T22:39:16;32.42;;;23.17;;
57191;SDS011;43052;52.588;13.396;2024-03-07T22:41:47;32.90;;;24.48;;
57191;SDS011;43052;52.588;13.396;2024-03-07T22:44:15;30.02;;;23.25;;
57191;SDS011;43052;52.588;13.396;2024-03-07T22:46:40;31.95;;;24.80;;
57191;SDS011;43052;52.588;13.396;2024-03-07T22:49:09;32.08;;;24.08;;
57191;SDS011;43052;52.588;13.396;2024-03-07T22:51:36;30.73;;;24.10;;
57191;SDS011;43052;52.588;13.396;2024-03-07T22:54:11;34.38;;;24.80;;
57191;SDS011;43052;52.588;13.396;2024-03-07T22:57:00;32.78;;;24.60;;
57191;SDS011;43052;52.588;13.396;2024-03-07T22:59:33;29.77;;;23.25;;
57191;SDS011;43052;52.588;13.396;2024-03-07T23:02:10;34.55;;;25.55;;
57191;SDS011;43052;52.588;13.396;2024-03-07T23:04:48;36.38;;;27.38;;
57191;SDS011;43052;52.588;13.396;2024-03-07T23:07:46;35.47;;;26.35;;
57191;SDS011;43052;52.588;13.396;2024-03-07T23:13:33;33.08;;;26.02;;
57191;SDS011;43052;52.588;13.396;2024-03-07T23:15:59;34.83;;;25.25;;
57191;SDS011;43052;52.588;13.396;2024-03-07T23:18:26;35.42;;;26.45;;
57191;SDS011;43052;52.588;13.396;2024-03-07T23:20:52;35.65;;;25.73;;
57191;SDS011;43052;52.588;13.396;2024-03-07T23:23:33;36.42;;;27.15;;
57191;SDS011;43052;52.588;13.396;2024-03-07T23:26:01;34.65;;;25.50;;
57191;SDS011;43052;52.588;13.396;2024-03-07T23:29:20;38.20;;;26.30;;
57191;SDS011;43052;52.588;13.396;2024-03-07T23:31:47;35.83;;;26.70;;
57191;SDS011;43052;52.588;13.396;2024-03-07T23:34:25;32.97;;;24.80;;
57191;SDS011;43052;52.588;13.396;2024-03-07T23:36:54;34.40;;;25.08;;
57191;SDS011;43052;52.588;13.396;2024-03-07T23:39:20;34.70;;;26.25;;
57191;SDS011;43052;52.588;13.396;2024-03-07T23:41:46;34.35;;;25.50;;
57191;SDS011;43052;52.588;13.396;2024-03-07T23:44:14;36.95;;;26.58;;
57191;SDS011;43052;52.588;13.396;2024-03-07T23:46:40;36.28;;;26.25;;
57191;SDS011;43052;52.588;13.396;2024-03-07T23:49:10;35.83;;;25.88;;
57191;SDS011;43052;52.588;13.396;2024-03-07T23:51:44;37.28;;;27.13;;
57191;SDS011;43052;52.588;13.396;2024-03-07T23:54:11;35.00;;;26.38;;
57191;SDS011;43052;52.588;13.396;2024-03-07T23:56:37;34.95;;;26.98;;
57191;SDS011;43052;52.588;13.396;2024-03-07T23:59:05;33.42;;;25.15;;
